Ashton, Iowa
Current Conditions -  °F | °C
As of 1:55 PM on Thursday 30 Oct 2014 (Local Time) from KSHL Reporting Station
Clear Clear  
Wind Chill: 59°   Ceiling: Unl
Heat Index: 59°   Visibility: NA
Dew Point: 36°   Wind: 13mph
Humidity: 42%   Direction: 350°N
Pressure: 30.06"   Gusts: 21mph
Location:  43.31°N, 95.79°W
Report Text: KSHL 301855Z AUTO 35011G18KT CLR 15/02 A3006 RMK AO2
Loading
Personal Weather Stations






























Interactive Weather Map
Tropical Storm Tracking
New forecast layout! Learn more

10-Day Weather Forecast

Advertisements
Track Severe Weather on mobile